sensor_id;sensor_type;location;lat;lon;timestamp;P1;durP1;ratioP1;P2;durP2;ratioP2
33270;SDS011;53180;51.344;6.152;2022-11-12T00:01:18;3.90;;;3.30;;
33270;SDS011;53180;51.344;6.152;2022-11-12T00:03:47;3.50;;;3.15;;
33270;SDS011;53180;51.344;6.152;2022-11-12T00:06:15;3.55;;;3.25;;
33270;SDS011;53180;51.344;6.152;2022-11-12T00:08:43;3.55;;;3.25;;
33270;SDS011;53180;51.344;6.152;2022-11-12T00:11:12;3.67;;;3.38;;
33270;SDS011;53180;51.344;6.152;2022-11-12T00:13:41;3.50;;;3.20;;
33270;SDS011;53180;51.344;6.152;2022-11-12T00:16:10;3.50;;;3.20;;
33270;SDS011;53180;51.344;6.152;2022-11-12T00:18:38;4.30;;;3.78;;
33270;SDS011;53180;51.344;6.152;2022-11-12T00:21:06;3.53;;;3.22;;
33270;SDS011;53180;51.344;6.152;2022-11-12T00:23:34;3.60;;;3.30;;
33270;SDS011;53180;51.344;6.152;2022-11-12T00:26:03;3.85;;;3.42;;
33270;SDS011;53180;51.344;6.152;2022-11-12T00:28:31;3.60;;;3.30;;
33270;SDS011;53180;51.344;6.152;2022-11-12T00:31:09;7.68;;;3.70;;
33270;SDS011;53180;51.344;6.152;2022-11-12T00:33:38;5.57;;;3.63;;
33270;SDS011;53180;51.344;6.152;2022-11-12T00:36:08;3.63;;;3.33;;
33270;SDS011;53180;51.344;6.152;2022-11-12T00:38:37;4.18;;;3.58;;
33270;SDS011;53180;51.344;6.152;2022-11-12T00:41:06;3.70;;;3.30;;
33270;SDS011;53180;51.344;6.152;2022-11-12T00:43:34;3.60;;;3.30;;
33270;SDS011;53180;51.344;6.152;2022-11-12T00:46:03;3.53;;;3.22;;
33270;SDS011;53180;51.344;6.152;2022-11-12T00:48:33;3.47;;;3.20;;
33270;SDS011;53180;51.344;6.152;2022-11-12T00:51:02;3.78;;;3.40;;
33270;SDS011;53180;51.344;6.152;2022-11-12T00:53:32;3.42;;;3.13;;
33270;SDS011;53180;51.344;6.152;2022-11-12T00:56:01;3.47;;;3.17;;
33270;SDS011;53180;51.344;6.152;2022-11-12T00:58:32;3.92;;;3.60;;
33270;SDS011;53180;51.344;6.152;2022-11-12T01:01:05;4.32;;;3.80;;
33270;SDS011;53180;51.344;6.152;2022-11-12T01:03:38;3.80;;;3.40;;
33270;SDS011;53180;51.344;6.152;2022-11-12T01:06:09;3.22;;;2.92;;
33270;SDS011;53180;51.344;6.152;2022-11-12T01:08:39;3.45;;;3.15;;
33270;SDS011;53180;51.344;6.152;2022-11-12T01:11:09;3.92;;;3.63;;
33270;SDS011;53180;51.344;6.152;2022-11-12T01:13:43;3.95;;;3.55;;
33270;SDS011;53180;51.344;6.152;2022-11-12T01:16:14;4.00;;;3.55;;
33270;SDS011;53180;51.344;6.152;2022-11-12T01:18:49;4.13;;;3.42;;
33270;SDS011;53180;51.344;6.152;2022-11-12T01:21:20;3.60;;;3.30;;
33270;SDS011;53180;51.344;6.152;2022-11-12T01:23:50;3.60;;;3.30;;
33270;SDS011;53180;51.344;6.152;2022-11-12T01:26:19;3.70;;;3.40;;
33270;SDS011;53180;51.344;6.152;2022-11-12T01:28:49;3.70;;;3.40;;
33270;SDS011;53180;51.344;6.152;2022-11-12T01:31:18;4.07;;;3.40;;
33270;SDS011;53180;51.344;6.152;2022-11-12T01:33:51;4.80;;;3.97;;
33270;SDS011;53180;51.344;6.152;2022-11-12T01:36:22;3.67;;;3.38;;
33270;SDS011;53180;51.344;6.152;2022-11-12T01:38:52;3.50;;;3.22;;
33270;SDS011;53180;51.344;6.152;2022-11-12T01:41:22;3.60;;;3.30;;
33270;SDS011;53180;51.344;6.152;2022-11-12T01:44:07;6.55;;;3.47;;
33270;SDS011;53180;51.344;6.152;2022-11-12T01:46:40;3.92;;;3.60;;
33270;SDS011;53180;51.344;6.152;2022-11-12T01:49:22;5.75;;;3.95;;
33270;SDS011;53180;51.344;6.152;2022-11-12T01:51:57;3.25;;;2.95;;
33270;SDS011;53180;51.344;6.152;2022-11-12T01:54:34;7.00;;;3.85;;
33270;SDS011;53180;51.344;6.152;2022-11-12T01:57:04;7.95;;;3.97;;
33270;SDS011;53180;51.344;6.152;2022-11-12T01:59:35;3.90;;;3.50;;
33270;SDS011;53180;51.344;6.152;2022-11-12T02:02:08;3.60;;;3.28;;
33270;SDS011;53180;51.344;6.152;2022-11-12T02:04:38;4.25;;;3.85;;
33270;SDS011;53180;51.344;6.152;2022-11-12T02:07:08;4.10;;;3.80;;
33270;SDS011;53180;51.344;6.152;2022-11-12T02:09:38;3.67;;;3.38;;
33270;SDS011;53180;51.344;6.152;2022-11-12T02:12:06;3.50;;;3.20;;
33270;SDS011;53180;51.344;6.152;2022-11-12T02:14:55;4.30;;;3.75;;
33270;SDS011;53180;51.344;6.152;2022-11-12T02:17:22;5.93;;;3.70;;
33270;SDS011;53180;51.344;6.152;2022-11-12T02:19:52;4.30;;;3.90;;
33270;SDS011;53180;51.344;6.152;2022-11-12T02:22:22;5.50;;;3.60;;
33270;SDS011;53180;51.344;6.152;2022-11-12T02:24:50;4.38;;;3.47;;
33270;SDS011;53180;51.344;6.152;2022-11-12T02:27:18;3.85;;;3.40;;
33270;SDS011;53180;51.344;6.152;2022-11-12T02:29:47;3.67;;;3.38;;
33270;SDS011;53180;51.344;6.152;2022-11-12T02:32:15;5.32;;;3.58;;
33270;SDS011;53180;51.344;6.152;2022-11-12T02:34:43;4.75;;;3.67;;
33270;SDS011;53180;51.344;6.152;2022-11-12T02:37:12;4.13;;;3.67;;
33270;SDS011;53180;51.344;6.152;2022-11-12T02:39:41;3.85;;;3.45;;
33270;SDS011;53180;51.344;6.152;2022-11-12T02:42:10;3.83;;;3.05;;
33270;SDS011;53180;51.344;6.152;2022-11-12T02:44:38;4.38;;;3.80;;
33270;SDS011;53180;51.344;6.152;2022-11-12T02:47:06;3.58;;;3.28;;
33270;SDS011;53180;51.344;6.152;2022-11-12T02:49:35;4.63;;;3.60;;
33270;SDS011;53180;51.344;6.152;2022-11-12T02:52:03;4.70;;;3.95;;
33270;SDS011;53180;51.344;6.152;2022-11-12T02:54:31;4.75;;;3.33;;
33270;SDS011;53180;51.344;6.152;2022-11-12T02:57:01;6.28;;;3.67;;
33270;SDS011;53180;51.344;6.152;2022-11-12T02:59:29;5.10;;;4.18;;
33270;SDS011;53180;51.344;6.152;2022-11-12T03:01:58;4.93;;;3.72;;
33270;SDS011;53180;51.344;6.152;2022-11-12T03:04:26;7.13;;;3.90;;
33270;SDS011;53180;51.344;6.152;2022-11-12T03:06:54;6.38;;;4.13;;
33270;SDS011;53180;51.344;6.152;2022-11-12T03:09:23;7.60;;;3.58;;
33270;SDS011;53180;51.344;6.152;2022-11-12T03:11:51;3.67;;;3.38;;
33270;SDS011;53180;51.344;6.152;2022-11-12T03:14:21;4.78;;;3.60;;
33270;SDS011;53180;51.344;6.152;2022-11-12T03:16:49;8.45;;;3.78;;
33270;SDS011;53180;51.344;6.152;2022-11-12T03:19:17;5.18;;;3.53;;
33270;SDS011;53180;51.344;6.152;2022-11-12T03:21:46;4.65;;;3.83;;
33270;SDS011;53180;51.344;6.152;2022-11-12T03:24:14;4.00;;;3.60;;
33270;SDS011;53180;51.344;6.152;2022-11-12T03:26:42;4.07;;;3.67;;
33270;SDS011;53180;51.344;6.152;2022-11-12T03:29:11;5.47;;;4.13;;
33270;SDS011;53180;51.344;6.152;2022-11-12T03:31:40;5.30;;;3.70;;
33270;SDS011;53180;51.344;6.152;2022-11-12T03:34:09;4.70;;;3.85;;
33270;SDS011;53180;51.344;6.152;2022-11-12T03:36:38;4.72;;;4.28;;
33270;SDS011;53180;51.344;6.152;2022-11-12T03:39:06;4.35;;;3.92;;
33270;SDS011;53180;51.344;6.152;2022-11-12T03:41:35;4.43;;;3.83;;
33270;SDS011;53180;51.344;6.152;2022-11-12T03:44:03;5.55;;;3.75;;
33270;SDS011;53180;51.344;6.152;2022-11-12T03:46:31;6.05;;;3.67;;
33270;SDS011;53180;51.344;6.152;2022-11-12T03:49:04;5.95;;;4.50;;
33270;SDS011;53180;51.344;6.152;2022-11-12T03:51:32;4.22;;;3.83;;
33270;SDS011;53180;51.344;6.152;2022-11-12T03:54:01;4.43;;;3.88;;
33270;SDS011;53180;51.344;6.152;2022-11-12T03:56:29;7.38;;;4.38;;
33270;SDS011;53180;51.344;6.152;2022-11-12T03:58:57;4.53;;;3.58;;
33270;SDS011;53180;51.344;6.152;2022-11-12T04:01:26;4.60;;;3.78;;
33270;SDS011;53180;51.344;6.152;2022-11-12T04:03:54;4.68;;;3.67;;
33270;SDS011;53180;51.344;6.152;2022-11-12T04:06:24;7.55;;;3.50;;
33270;SDS011;53180;51.344;6.152;2022-11-12T04:09:09;5.25;;;3.83;;
33270;SDS011;53180;51.344;6.152;2022-11-12T04:11:38;4.13;;;3.65;;
33270;SDS011;53180;51.344;6.152;2022-11-12T04:14:06;8.73;;;3.72;;
33270;SDS011;53180;51.344;6.152;2022-11-12T04:16:33;6.28;;;4.57;;
33270;SDS011;53180;51.344;6.152;2022-11-12T04:19:19;4.32;;;3.47;;
33270;SDS011;53180;51.344;6.152;2022-11-12T04:22:08;3.67;;;3.38;;
33270;SDS011;53180;51.344;6.152;2022-11-12T04:24:38;3.90;;;3.50;;
33270;SDS011;53180;51.344;6.152;2022-11-12T04:27:27;4.57;;;3.70;;
33270;SDS011;53180;51.344;6.152;2022-11-12T04:29:57;3.22;;;2.92;;
33270;SDS011;53180;51.344;6.152;2022-11-12T04:32:45;4.10;;;3.40;;
33270;SDS011;53180;51.344;6.152;2022-11-12T04:35:16;4.57;;;3.50;;
33270;SDS011;53180;51.344;6.152;2022-11-12T04:37:46;6.03;;;3.80;;
33270;SDS011;53180;51.344;6.152;2022-11-12T04:40:15;8.57;;;3.40;;
33270;SDS011;53180;51.344;6.152;2022-11-12T04:43:05;5.68;;;3.78;;
33270;SDS011;53180;51.344;6.152;2022-11-12T04:45:54;4.18;;;3.50;;
33270;SDS011;53180;51.344;6.152;2022-11-12T04:48:23;3.95;;;3.55;;
33270;SDS011;53180;51.344;6.152;2022-11-12T04:50:53;5.25;;;3.53;;
33270;SDS011;53180;51.344;6.152;2022-11-12T04:53:25;5.00;;;3.65;;
33270;SDS011;53180;51.344;6.152;2022-11-12T04:55:56;5.57;;;3.92;;
33270;SDS011;53180;51.344;6.152;2022-11-12T04:58:25;6.00;;;3.38;;
33270;SDS011;53180;51.344;6.152;2022-11-12T05:00:54;7.10;;;3.53;;
33270;SDS011;53180;51.344;6.152;2022-11-12T05:03:22;4.05;;;3.70;;
33270;SDS011;53180;51.344;6.152;2022-11-12T05:05:51;4.65;;;4.07;;
33270;SDS011;53180;51.344;6.152;2022-11-12T05:08:19;14.00;;;3.95;;
33270;SDS011;53180;51.344;6.152;2022-11-12T05:10:49;6.57;;;3.53;;
33270;SDS011;53180;51.344;6.152;2022-11-12T05:13:17;3.90;;;3.53;;
33270;SDS011;53180;51.344;6.152;2022-11-12T05:15:45;3.75;;;3.40;;
33270;SDS011;53180;51.344;6.152;2022-11-12T05:18:14;3.35;;;3.05;;
33270;SDS011;53180;51.344;6.152;2022-11-12T05:20:42;6.03;;;3.72;;
33270;SDS011;53180;51.344;6.152;2022-11-12T05:23:10;4.13;;;3.55;;
33270;SDS011;53180;51.344;6.152;2022-11-12T05:25:38;4.18;;;3.47;;
33270;SDS011;53180;51.344;6.152;2022-11-12T05:28:08;4.95;;;3.97;;
33270;SDS011;53180;51.344;6.152;2022-11-12T05:30:36;4.10;;;3.60;;
33270;SDS011;53180;51.344;6.152;2022-11-12T05:33:04;4.72;;;3.53;;
33270;SDS011;53180;51.344;6.152;2022-11-12T05:35:33;5.45;;;3.45;;
33270;SDS011;53180;51.344;6.152;2022-11-12T05:38:01;6.65;;;3.08;;
33270;SDS011;53180;51.344;6.152;2022-11-12T05:40:29;5.07;;;4.18;;
33270;SDS011;53180;51.344;6.152;2022-11-12T05:42:58;3.60;;;3.30;;
33270;SDS011;53180;51.344;6.152;2022-11-12T05:45:27;9.63;;;3.55;;
33270;SDS011;53180;51.344;6.152;2022-11-12T05:47:56;5.35;;;3.33;;
33270;SDS011;53180;51.344;6.152;2022-11-12T05:50:24;3.88;;;3.47;;
33270;SDS011;53180;51.344;6.152;2022-11-12T05:53:05;4.30;;;3.63;;
33270;SDS011;53180;51.344;6.152;2022-11-12T05:55:33;4.65;;;3.53;;
33270;SDS011;53180;51.344;6.152;2022-11-12T05:58:03;7.40;;;3.28;;
33270;SDS011;53180;51.344;6.152;2022-11-12T06:00:33;3.60;;;3.30;;
33270;SDS011;53180;51.344;6.152;2022-11-12T06:03:04;4.30;;;3.45;;
33270;SDS011;53180;51.344;6.152;2022-11-12T06:05:33;7.70;;;3.60;;
33270;SDS011;53180;51.344;6.152;2022-11-12T06:08:02;4.13;;;3.53;;
33270;SDS011;53180;51.344;6.152;2022-11-12T06:10:32;9.63;;;3.85;;
33270;SDS011;53180;51.344;6.152;2022-11-12T06:13:00;4.00;;;3.53;;
33270;SDS011;53180;51.344;6.152;2022-11-12T06:15:28;5.57;;;3.47;;
33270;SDS011;53180;51.344;6.152;2022-11-12T06:18:05;10.10;;;3.95;;
33270;SDS011;53180;51.344;6.152;2022-11-12T06:20:34;5.18;;;3.50;;
33270;SDS011;53180;51.344;6.152;2022-11-12T06:23:03;3.88;;;3.55;;
33270;SDS011;53180;51.344;6.152;2022-11-12T06:25:31;5.95;;;3.88;;
33270;SDS011;53180;51.344;6.152;2022-11-12T06:27:59;3.67;;;3.35;;
33270;SDS011;53180;51.344;6.152;2022-11-12T06:30:28;5.55;;;4.05;;
33270;SDS011;53180;51.344;6.152;2022-11-12T06:32:56;3.55;;;3.25;;
33270;SDS011;53180;51.344;6.152;2022-11-12T06:35:26;4.53;;;3.97;;
33270;SDS011;53180;51.344;6.152;2022-11-12T06:37:54;3.90;;;3.50;;
33270;SDS011;53180;51.344;6.152;2022-11-12T06:40:22;4.45;;;4.05;;
33270;SDS011;53180;51.344;6.152;2022-11-12T06:42:54;4.07;;;3.58;;
33270;SDS011;53180;51.344;6.152;2022-11-12T06:45:23;5.07;;;3.80;;
33270;SDS011;53180;51.344;6.152;2022-11-12T06:47:53;4.28;;;3.55;;
33270;SDS011;53180;51.344;6.152;2022-11-12T06:50:25;3.33;;;3.03;;
33270;SDS011;53180;51.344;6.152;2022-11-12T06:52:56;4.40;;;3.92;;
33270;SDS011;53180;51.344;6.152;2022-11-12T06:55:25;4.50;;;3.53;;
33270;SDS011;53180;51.344;6.152;2022-11-12T06:57:53;5.78;;;4.05;;
33270;SDS011;53180;51.344;6.152;2022-11-12T07:00:22;3.80;;;3.50;;
33270;SDS011;53180;51.344;6.152;2022-11-12T07:02:50;4.57;;;3.60;;
33270;SDS011;53180;51.344;6.152;2022-11-12T07:05:19;4.13;;;3.28;;
33270;SDS011;53180;51.344;6.152;2022-11-12T07:07:48;3.90;;;3.50;;
33270;SDS011;53180;51.344;6.152;2022-11-12T07:10:17;4.72;;;3.83;;
33270;SDS011;53180;51.344;6.152;2022-11-12T07:12:45;4.60;;;4.00;;
33270;SDS011;53180;51.344;6.152;2022-11-12T07:15:18;4.13;;;3.72;;
33270;SDS011;53180;51.344;6.152;2022-11-12T07:17:47;5.97;;;4.28;;
33270;SDS011;53180;51.344;6.152;2022-11-12T07:20:15;4.25;;;3.85;;
33270;SDS011;53180;51.344;6.152;2022-11-12T07:22:44;4.18;;;3.78;;
33270;SDS011;53180;51.344;6.152;2022-11-12T07:25:14;7.70;;;5.25;;
33270;SDS011;53180;51.344;6.152;2022-11-12T07:27:42;10.77;;;4.75;;
33270;SDS011;53180;51.344;6.152;2022-11-12T07:30:11;9.48;;;4.47;;
33270;SDS011;53180;51.344;6.152;2022-11-12T07:32:42;5.25;;;4.22;;
33270;SDS011;53180;51.344;6.152;2022-11-12T07:35:17;4.53;;;4.03;;
33270;SDS011;53180;51.344;6.152;2022-11-12T07:37:45;4.03;;;3.63;;
33270;SDS011;53180;51.344;6.152;2022-11-12T07:40:15;4.90;;;3.97;;
33270;SDS011;53180;51.344;6.152;2022-11-12T07:42:43;4.65;;;3.63;;
33270;SDS011;53180;51.344;6.152;2022-11-12T07:45:11;6.85;;;3.85;;
33270;SDS011;53180;51.344;6.152;2022-11-12T07:47:40;3.83;;;3.42;;
33270;SDS011;53180;51.344;6.152;2022-11-12T07:50:08;6.88;;;4.47;;
33270;SDS011;53180;51.344;6.152;2022-11-12T07:52:37;7.88;;;4.13;;
33270;SDS011;53180;51.344;6.152;2022-11-12T07:55:05;19.08;;;9.27;;
33270;SDS011;53180;51.344;6.152;2022-11-12T07:57:36;7.30;;;4.85;;
33270;SDS011;53180;51.344;6.152;2022-11-12T08:00:05;4.45;;;3.58;;
33270;SDS011;53180;51.344;6.152;2022-11-12T08:02:35;8.38;;;3.70;;
33270;SDS011;53180;51.344;6.152;2022-11-12T08:05:06;5.70;;;3.73;;
33270;SDS011;53180;51.344;6.152;2022-11-12T08:07:42;4.38;;;3.80;;
33270;SDS011;53180;51.344;6.152;2022-11-12T08:10:11;4.55;;;3.78;;
33270;SDS011;53180;51.344;6.152;2022-11-12T08:12:40;4.40;;;3.65;;
33270;SDS011;53180;51.344;6.152;2022-11-12T08:15:09;5.35;;;3.85;;
33270;SDS011;53180;51.344;6.152;2022-11-12T08:17:37;3.70;;;3.40;;
33270;SDS011;53180;51.344;6.152;2022-11-12T08:20:09;3.35;;;3.05;;
33270;SDS011;53180;51.344;6.152;2022-11-12T08:22:38;4.40;;;3.53;;
33270;SDS011;53180;51.344;6.152;2022-11-12T08:25:14;3.65;;;3.10;;
33270;SDS011;53180;51.344;6.152;2022-11-12T08:27:45;3.78;;;3.15;;
33270;SDS011;53180;51.344;6.152;2022-11-12T08:30:14;3.88;;;3.38;;
33270;SDS011;53180;51.344;6.152;2022-11-12T08:32:42;4.45;;;3.58;;
33270;SDS011;53180;51.344;6.152;2022-11-12T08:35:11;6.15;;;3.92;;
33270;SDS011;53180;51.344;6.152;2022-11-12T08:37:39;5.50;;;3.78;;
33270;SDS011;53180;51.344;6.152;2022-11-12T08:40:08;5.68;;;3.67;;
33270;SDS011;53180;51.344;6.152;2022-11-12T08:42:38;3.05;;;2.58;;
33270;SDS011;53180;51.344;6.152;2022-11-12T08:45:09;4.18;;;2.83;;
33270;SDS011;53180;51.344;6.152;2022-11-12T08:47:37;4.38;;;2.95;;
33270;SDS011;53180;51.344;6.152;2022-11-12T08:50:06;4.75;;;3.17;;
33270;SDS011;53180;51.344;6.152;2022-11-12T08:52:35;5.73;;;3.47;;
33270;SDS011;53180;51.344;6.152;2022-11-12T08:55:04;5.00;;;3.53;;
33270;SDS011;53180;51.344;6.152;2022-11-12T08:57:37;5.90;;;3.20;;
33270;SDS011;53180;51.344;6.152;2022-11-12T09:00:10;4.00;;;2.90;;
33270;SDS011;53180;51.344;6.152;2022-11-12T09:02:40;3.47;;;2.72;;
33270;SDS011;53180;51.344;6.152;2022-11-12T09:05:08;5.88;;;3.13;;
33270;SDS011;53180;51.344;6.152;2022-11-12T09:07:36;7.50;;;3.00;;
33270;SDS011;53180;51.344;6.152;2022-11-12T09:10:20;5.10;;;2.88;;
33270;SDS011;53180;51.344;6.152;2022-11-12T09:12:49;3.67;;;2.53;;
33270;SDS011;53180;51.344;6.152;2022-11-12T09:15:19;3.50;;;2.63;;
33270;SDS011;53180;51.344;6.152;2022-11-12T09:18:04;5.43;;;3.30;;
33270;SDS011;53180;51.344;6.152;2022-11-12T09:20:34;3.90;;;3.00;;
33270;SDS011;53180;51.344;6.152;2022-11-12T09:23:03;4.50;;;3.22;;
33270;SDS011;53180;51.344;6.152;2022-11-12T09:25:34;4.07;;;3.08;;
33270;SDS011;53180;51.344;6.152;2022-11-12T09:28:06;4.70;;;2.50;;
33270;SDS011;53180;51.344;6.152;2022-11-12T09:30:40;4.20;;;2.63;;
33270;SDS011;53180;51.344;6.152;2022-11-12T09:33:11;4.22;;;2.83;;
33270;SDS011;53180;51.344;6.152;2022-11-12T09:35:40;3.78;;;3.20;;
33270;SDS011;53180;51.344;6.152;2022-11-12T09:38:10;3.97;;;2.55;;
33270;SDS011;53180;51.344;6.152;2022-11-12T09:41:00;6.20;;;3.22;;
33270;SDS011;53180;51.344;6.152;2022-11-12T09:43:51;4.65;;;2.55;;
33270;SDS011;53180;51.344;6.152;2022-11-12T09:46:30;3.90;;;2.23;;
33270;SDS011;53180;51.344;6.152;2022-11-12T09:49:05;3.17;;;2.47;;
33270;SDS011;53180;51.344;6.152;2022-11-12T09:51:40;5.60;;;3.17;;
33270;SDS011;53180;51.344;6.152;2022-11-12T09:54:21;3.25;;;2.47;;
33270;SDS011;53180;51.344;6.152;2022-11-12T09:56:52;4.88;;;3.13;;
33270;SDS011;53180;51.344;6.152;2022-11-12T09:59:21;5.07;;;3.15;;
33270;SDS011;53180;51.344;6.152;2022-11-12T10:01:56;3.53;;;2.25;;
33270;SDS011;53180;51.344;6.152;2022-11-12T10:04:36;4.13;;;2.42;;
33270;SDS011;53180;51.344;6.152;2022-11-12T10:10:21;4.28;;;2.50;;
33270;SDS011;53180;51.344;6.152;2022-11-12T10:13:05;3.80;;;2.72;;
33270;SDS011;53180;51.344;6.152;2022-11-12T10:15:55;3.30;;;2.30;;
33270;SDS011;53180;51.344;6.152;2022-11-12T10:19:04;3.85;;;2.60;;
33270;SDS011;53180;51.344;6.152;2022-11-12T10:21:57;3.80;;;2.50;;
33270;SDS011;53180;51.344;6.152;2022-11-12T10:24:38;3.90;;;2.58;;
33270;SDS011;53180;51.344;6.152;2022-11-12T10:27:14;4.38;;;2.58;;
33270;SDS011;53180;51.344;6.152;2022-11-12T10:29:46;3.85;;;2.60;;
33270;SDS011;53180;51.344;6.152;2022-11-12T10:32:19;3.42;;;2.47;;
33270;SDS011;53180;51.344;6.152;2022-11-12T10:34:51;5.70;;;2.80;;
33270;SDS011;53180;51.344;6.152;2022-11-12T10:37:21;3.40;;;2.50;;
33270;SDS011;53180;51.344;6.152;2022-11-12T10:39:55;4.82;;;2.65;;
33270;SDS011;53180;51.344;6.152;2022-11-12T10:42:23;3.75;;;2.55;;
33270;SDS011;53180;51.344;6.152;2022-11-12T10:44:52;3.78;;;2.42;;
33270;SDS011;53180;51.344;6.152;2022-11-12T10:47:46;4.22;;;2.72;;
33270;SDS011;53180;51.344;6.152;2022-11-12T10:50:18;3.33;;;2.55;;
33270;SDS011;53180;51.344;6.152;2022-11-12T10:52:53;3.95;;;2.58;;
33270;SDS011;53180;51.344;6.152;2022-11-12T10:55:24;5.47;;;2.65;;
33270;SDS011;53180;51.344;6.152;2022-11-12T11:00:37;3.95;;;2.60;;
33270;SDS011;53180;51.344;6.152;2022-11-12T11:03:20;6.13;;;3.55;;
33270;SDS011;53180;51.344;6.152;2022-11-12T11:05:53;4.97;;;2.72;;
33270;SDS011;53180;51.344;6.152;2022-11-12T11:08:38;3.35;;;2.50;;
33270;SDS011;53180;51.344;6.152;2022-11-12T11:11:24;4.57;;;2.78;;
33270;SDS011;53180;51.344;6.152;2022-11-12T11:13:55;4.05;;;3.00;;
33270;SDS011;53180;51.344;6.152;2022-11-12T11:16:49;4.10;;;2.45;;
33270;SDS011;53180;51.344;6.152;2022-11-12T11:19:19;3.95;;;2.75;;
33270;SDS011;53180;51.344;6.152;2022-11-12T11:22:01;4.50;;;2.67;;
33270;SDS011;53180;51.344;6.152;2022-11-12T11:24:50;3.22;;;2.63;;
33270;SDS011;53180;51.344;6.152;2022-11-12T11:27:34;3.83;;;2.60;;
33270;SDS011;53180;51.344;6.152;2022-11-12T11:30:09;3.78;;;2.58;;
33270;SDS011;53180;51.344;6.152;2022-11-12T11:32:45;4.55;;;3.03;;
33270;SDS011;53180;51.344;6.152;2022-11-12T11:35:51;4.18;;;3.00;;
33270;SDS011;53180;51.344;6.152;2022-11-12T11:38:32;5.20;;;2.78;;
33270;SDS011;53180;51.344;6.152;2022-11-12T11:41:17;4.53;;;2.78;;
33270;SDS011;53180;51.344;6.152;2022-11-12T11:44:13;3.47;;;2.35;;
33270;SDS011;53180;51.344;6.152;2022-11-12T11:46:54;4.13;;;2.60;;
33270;SDS011;53180;51.344;6.152;2022-11-12T11:49:45;3.85;;;2.58;;
33270;SDS011;53180;51.344;6.152;2022-11-12T11:52:48;5.22;;;2.70;;
33270;SDS011;53180;51.344;6.152;2022-11-12T11:55:33;3.58;;;2.50;;
33270;SDS011;53180;51.344;6.152;2022-11-12T11:58:14;9.63;;;5.30;;
33270;SDS011;53180;51.344;6.152;2022-11-12T12:01:04;6.50;;;3.38;;
33270;SDS011;53180;51.344;6.152;2022-11-12T12:03:45;4.18;;;3.00;;
33270;SDS011;53180;51.344;6.152;2022-11-12T12:06:26;4.47;;;2.80;;
33270;SDS011;53180;51.344;6.152;2022-11-12T12:34:26;5.05;;;2.72;;
33270;SDS011;53180;51.344;6.152;2022-11-12T12:40:01;6.70;;;2.65;;
33270;SDS011;53180;51.344;6.152;2022-11-12T12:42:41;3.60;;;2.22;;
33270;SDS011;53180;51.344;6.152;2022-11-12T12:45:23;4.18;;;2.20;;
33270;SDS011;53180;51.344;6.152;2022-11-12T12:48:50;3.97;;;2.47;;
33270;SDS011;53180;51.344;6.152;2022-11-12T12:58:40;3.22;;;2.20;;
33270;SDS011;53180;51.344;6.152;2022-11-12T13:01:13;3.90;;;2.03;;
33270;SDS011;53180;51.344;6.152;2022-11-12T13:03:57;17.15;;;7.82;;
33270;SDS011;53180;51.344;6.152;2022-11-12T13:06:36;4.47;;;2.92;;
33270;SDS011;53180;51.344;6.152;2022-11-12T13:09:19;2.67;;;1.85;;
33270;SDS011;53180;51.344;6.152;2022-11-12T13:11:53;3.47;;;2.47;;
33270;SDS011;53180;51.344;6.152;2022-11-12T13:14:48;3.55;;;2.45;;
33270;SDS011;53180;51.344;6.152;2022-11-12T13:17:45;5.38;;;2.20;;
33270;SDS011;53180;51.344;6.152;2022-11-12T13:35:24;2.90;;;2.20;;
33270;SDS011;53180;51.344;6.152;2022-11-12T13:37:56;4.68;;;2.60;;
33270;SDS011;53180;51.344;6.152;2022-11-12T13:40:38;3.30;;;2.33;;
33270;SDS011;53180;51.344;6.152;2022-11-12T13:46:07;5.00;;;2.75;;
33270;SDS011;53180;51.344;6.152;2022-11-12T13:51:27;3.28;;;2.17;;
33270;SDS011;53180;51.344;6.152;2022-11-12T13:57:11;4.97;;;2.60;;
33270;SDS011;53180;51.344;6.152;2022-11-12T13:59:41;3.78;;;2.17;;
33270;SDS011;53180;51.344;6.152;2022-11-12T14:02:16;3.45;;;2.22;;
33270;SDS011;53180;51.344;6.152;2022-11-12T14:04:50;2.95;;;1.95;;
33270;SDS011;53180;51.344;6.152;2022-11-12T14:07:24;3.13;;;1.85;;
33270;SDS011;53180;51.344;6.152;2022-11-12T14:10:08;2.88;;;2.10;;
33270;SDS011;53180;51.344;6.152;2022-11-12T14:12:54;2.88;;;2.03;;
33270;SDS011;53180;51.344;6.152;2022-11-12T14:15:46;3.17;;;1.98;;
33270;SDS011;53180;51.344;6.152;2022-11-12T14:18:34;2.58;;;1.65;;
33270;SDS011;53180;51.344;6.152;2022-11-12T14:21:19;3.78;;;2.15;;
33270;SDS011;53180;51.344;6.152;2022-11-12T14:23:48;3.33;;;2.25;;
33270;SDS011;53180;51.344;6.152;2022-11-12T14:26:32;2.58;;;1.70;;
33270;SDS011;53180;51.344;6.152;2022-11-12T14:29:02;3.40;;;1.98;;
33270;SDS011;53180;51.344;6.152;2022-11-12T14:31:31;4.88;;;2.75;;
33270;SDS011;53180;51.344;6.152;2022-11-12T14:34:19;6.40;;;2.10;;
33270;SDS011;53180;51.344;6.152;2022-11-12T14:36:49;2.72;;;1.63;;
33270;SDS011;53180;51.344;6.152;2022-11-12T14:39:21;3.17;;;1.75;;
33270;SDS011;53180;51.344;6.152;2022-11-12T14:41:50;3.38;;;2.33;;
33270;SDS011;53180;51.344;6.152;2022-11-12T14:44:20;2.80;;;1.85;;
33270;SDS011;53180;51.344;6.152;2022-11-12T14:46:53;4.00;;;1.95;;
33270;SDS011;53180;51.344;6.152;2022-11-12T14:49:26;2.42;;;1.85;;
33270;SDS011;53180;51.344;6.152;2022-11-12T14:52:08;1.95;;;1.42;;
33270;SDS011;53180;51.344;6.152;2022-11-12T14:54:41;8.27;;;2.05;;
33270;SDS011;53180;51.344;6.152;2022-11-12T14:57:16;2.28;;;1.40;;
33270;SDS011;53180;51.344;6.152;2022-11-12T14:59:48;2.03;;;1.55;;
33270;SDS011;53180;51.344;6.152;2022-11-12T15:02:18;3.08;;;2.08;;
33270;SDS011;53180;51.344;6.152;2022-11-12T15:05:12;2.33;;;1.40;;
33270;SDS011;53180;51.344;6.152;2022-11-12T15:07:52;3.90;;;1.73;;
33270;SDS011;53180;51.344;6.152;2022-11-12T15:10:27;2.08;;;1.63;;
33270;SDS011;53180;51.344;6.152;2022-11-12T15:13:01;5.00;;;1.80;;
33270;SDS011;53180;51.344;6.152;2022-11-12T15:15:32;2.63;;;1.70;;
33270;SDS011;53180;51.344;6.152;2022-11-12T15:18:03;2.60;;;1.13;;
33270;SDS011;53180;51.344;6.152;2022-11-12T15:20:37;2.33;;;1.63;;
33270;SDS011;53180;51.344;6.152;2022-11-12T15:23:12;4.47;;;1.75;;
33270;SDS011;53180;51.344;6.152;2022-11-12T15:25:43;3.83;;;1.90;;
33270;SDS011;53180;51.344;6.152;2022-11-12T15:28:12;2.72;;;1.70;;
33270;SDS011;53180;51.344;6.152;2022-11-12T15:30:58;3.03;;;1.98;;
33270;SDS011;53180;51.344;6.152;2022-11-12T15:33:29;3.03;;;1.60;;
33270;SDS011;53180;51.344;6.152;2022-11-12T15:35:58;7.35;;;3.80;;
33270;SDS011;53180;51.344;6.152;2022-11-12T15:41:03;9.98;;;5.05;;
33270;SDS011;53180;51.344;6.152;2022-11-12T15:43:34;6.55;;;3.78;;
33270;SDS011;53180;51.344;6.152;2022-11-12T15:46:09;4.78;;;2.70;;
33270;SDS011;53180;51.344;6.152;2022-11-12T15:48:41;3.33;;;2.17;;
33270;SDS011;53180;51.344;6.152;2022-11-12T15:51:10;3.15;;;2.00;;
33270;SDS011;53180;51.344;6.152;2022-11-12T15:53:44;1.83;;;1.52;;
33270;SDS011;53180;51.344;6.152;2022-11-12T15:56:12;3.38;;;1.60;;
33270;SDS011;53180;51.344;6.152;2022-11-12T15:58:44;2.90;;;1.67;;
33270;SDS011;53180;51.344;6.152;2022-11-12T16:01:12;6.70;;;2.13;;
33270;SDS011;53180;51.344;6.152;2022-11-12T16:03:40;2.60;;;1.58;;
33270;SDS011;53180;51.344;6.152;2022-11-12T16:06:11;6.00;;;3.10;;
33270;SDS011;53180;51.344;6.152;2022-11-12T16:08:39;7.00;;;3.00;;
33270;SDS011;53180;51.344;6.152;2022-11-12T16:11:07;3.22;;;1.92;;
33270;SDS011;53180;51.344;6.152;2022-11-12T16:13:57;2.55;;;1.65;;
33270;SDS011;53180;51.344;6.152;2022-11-12T16:16:26;2.67;;;1.70;;
33270;SDS011;53180;51.344;6.152;2022-11-12T16:18:54;2.53;;;1.60;;
33270;SDS011;53180;51.344;6.152;2022-11-12T16:21:24;2.20;;;1.95;;
33270;SDS011;53180;51.344;6.152;2022-11-12T16:23:52;2.17;;;1.60;;
33270;SDS011;53180;51.344;6.152;2022-11-12T16:26:22;3.90;;;2.13;;
33270;SDS011;53180;51.344;6.152;2022-11-12T16:28:55;4.05;;;2.28;;
33270;SDS011;53180;51.344;6.152;2022-11-12T16:31:23;3.17;;;2.33;;